LJLJ/LJU METAR and TAF weather

Enter ICAO airport designator
Station Type Date Time Source
LJLJ METAR 2021/10/22 20:00 UTC NOAA

LJLJ 222000Z VRB01KT 4000 BR SCT003 OVC013 12/11 Q1018 NOSIG


Station Type Date Time Source
LJLJ Decoded METAR 2021/10/22 20:00 UTC NOAA

Ljubljana / Brnik, Slovenia (LJLJ) 46-13N 014-29E 362M
Oct 22, 2021 - 04:00 PM EDT / 2021.10.22 2000 UTC
Wind: Variable at 1 MPH (1 KT):0
Visibility: 2 mile(s):0
Sky conditions: overcast
Weather: mist
Temperature: 53 F (12 C)
Dew Point: 51 F (11 C)
Relative Humidity: 93%
Pressure (altimeter): 30.06 in. Hg (1018 hPa)
ob: LJLJ 222000Z VRB01KT 4000 BR SCT003 OVC013 12/11 Q1018 NOSIG
cycle: 20

Station Type Date Time Source
LJLJ TAF 2021/10/22 18:06 UTC NOAA

TAF LJLJ 221700Z 2218/2318 VRB02KT 9999 BKN018 BKN060 PROB40
TEMPO 2218/2312 -RA BKN012 OVC020

Example: see airport list